Alvin, Illinois
Current Conditions -  °F | °C
As of 6:55 PM on Monday 26 Jan 2015 (Local Time) from KDNV Reporting Station
Light Rain Light Rain  
Wind Chill: 20°   Ceiling: 2000
Heat Index: 26°   Visibility: 3mi
Dew Point: 25°   Wind: 6mph
Humidity: 95%   Direction: 210°SSW
Pressure: 29.9"   Gusts: NA
Location:  40.31°N, 87.61°W
Report Text: KDNV 270055Z AUTO 21005KT 3SM -RA SCT007 BKN020 OVC033 M03/M04 A2990 RMK AO2 T10311038
Loading
Personal Weather Stations






























Interactive Weather Map New forecast layout! Learn more

10-Day Weather Forecast

Advertisements
Track Severe Weather on mobile